createdAt,value
2023-03-01T00:01:23.240Z,99481.41
2023-03-01T00:03:53.888Z,99480.25
2023-03-01T00:06:23.044Z,99475.56
2023-03-01T00:08:51.384Z,99473.66
2023-03-01T00:11:21.917Z,99474.47
2023-03-01T00:13:51.576Z,99470.66
2023-03-01T00:16:21.515Z,99467.16
2023-03-01T00:18:49.762Z,99476.88
2023-03-01T00:21:20.312Z,99474.13
2023-03-01T00:23:49.646Z,99470.66
2023-03-01T00:26:19.772Z,99472.22
2023-03-01T00:28:48.716Z,99461.75
2023-03-01T00:31:18.386Z,99463.66
2023-03-01T00:33:47.027Z,99465.97
2023-03-01T00:36:16.982Z,99461.69
2023-03-01T00:38:47.948Z,99455.09
2023-03-01T00:41:18.620Z,99446.56
2023-03-01T00:43:47.300Z,99454.72
2023-03-01T00:46:17.800Z,99452.00
2023-03-01T00:48:46.783Z,99445.00
2023-03-01T00:51:21.525Z,99442.66
2023-03-01T00:53:52.787Z,99434.41
2023-03-01T00:56:21.460Z,99443.78
2023-03-01T00:58:50.503Z,99442.25
2023-03-01T01:01:21.344Z,99440.72
2023-03-01T01:03:51.556Z,99432.19
2023-03-01T01:06:22.069Z,99434.53
2023-03-01T01:08:52.140Z,99434.91
2023-03-01T01:11:21.230Z,99448.50
2023-03-01T01:13:52.951Z,99436.09
2023-03-01T01:16:22.658Z,99427.91
2023-03-01T01:18:51.486Z,99429.84
2023-03-01T01:21:23.943Z,99431.81
2023-03-01T01:23:54.090Z,99434.13
2023-03-01T01:26:24.734Z,99429.09
2023-03-01T01:28:53.700Z,99412.00
2023-03-01T01:31:24.735Z,99416.25
2023-03-01T01:33:53.143Z,99417.44
2023-03-01T01:36:21.958Z,99415.47
2023-03-01T01:38:50.448Z,99417.03
2023-03-01T01:41:21.236Z,99414.28
2023-03-01T01:43:51.488Z,99425.50
2023-03-01T01:46:30.840Z,99418.50
2023-03-01T01:49:03.323Z,99418.03
2023-03-01T01:51:39.605Z,99415.53
2023-03-01T01:54:15.131Z,99407.81
2023-03-01T01:56:50.083Z,99405.91
2023-03-01T01:59:18.411Z,99409.75
2023-03-01T02:01:46.651Z,99396.63
2023-03-01T02:04:14.789Z,99399.44
2023-03-01T02:06:51.466Z,99402.50
2023-03-01T02:09:22.531Z,99403.41
2023-03-01T02:11:53.519Z,99407.81
2023-03-01T02:14:22.079Z,99405.56
2023-03-01T02:16:50.735Z,99402.94
2023-03-01T02:19:36.714Z,99404.09
2023-03-01T02:22:10.997Z,99405.56
2023-03-01T02:24:47.552Z,99404.41
2023-03-01T02:27:18.913Z,99406.81
2023-03-01T02:29:48.464Z,99411.47
2023-03-01T02:32:16.592Z,99415.31
2023-03-01T02:34:44.941Z,99412.25
2023-03-01T02:37:21.565Z,99409.53
2023-03-01T02:39:53.401Z,99415.38
2023-03-01T02:42:28.314Z,99411.53
2023-03-01T02:44:57.725Z,99415.41
2023-03-01T02:47:25.892Z,99413.06
2023-03-01T02:49:54.340Z,99409.19
2023-03-01T02:52:34.990Z,99413.47
2023-03-01T02:55:05.407Z,99417.72
2023-03-01T02:57:35.592Z,99417.31
2023-03-01T03:00:09.170Z,99409.16
2023-03-01T03:02:39.098Z,99408.00
2023-03-01T03:05:14.244Z,99399.47
2023-03-01T03:07:44.559Z,99404.91
2023-03-01T03:10:15.607Z,99398.66
2023-03-01T03:12:44.139Z,99401.41
2023-03-01T03:15:13.975Z,99398.31
2023-03-01T03:17:45.273Z,99395.53
2023-03-01T03:20:20.153Z,99395.94
2023-03-01T03:22:49.566Z,99392.81
2023-03-01T03:25:18.348Z,99391.25
2023-03-01T03:27:48.448Z,99390.50
2023-03-01T03:30:20.749Z,99398.25
2023-03-01T03:32:53.437Z,99392.75
2023-03-01T03:35:23.440Z,99388.91
2023-03-01T03:38:07.365Z,99390.47
2023-03-01T03:40:38.231Z,99403.63
2023-03-01T03:43:08.994Z,99393.56
2023-03-01T03:45:39.136Z,99399.75
2023-03-01T03:48:10.394Z,99400.09
2023-03-01T03:50:39.062Z,99396.63
2023-03-01T03:53:08.862Z,99401.28
2023-03-01T03:55:40.311Z,99405.16
2023-03-01T03:58:10.802Z,99401.28
2023-03-01T04:00:42.736Z,99399.69
2023-03-01T04:03:12.440Z,99392.69
2023-03-01T04:05:41.570Z,99398.91
2023-03-01T04:08:11.024Z,99390.00
2023-03-01T04:10:41.266Z,99389.22
2023-03-01T04:13:13.019Z,99394.25
2023-03-01T04:15:44.078Z,99398.53
2023-03-01T04:18:14.949Z,99393.09
2023-03-01T04:20:44.141Z,99390.00
2023-03-01T04:23:16.782Z,99395.81
2023-03-01T04:25:50.536Z,99396.97
2023-03-01T04:28:18.828Z,99408.22
2023-03-01T04:30:48.226Z,99400.44
2023-03-01T04:33:16.268Z,99393.88
2023-03-01T04:35:44.658Z,99391.53
2023-03-01T04:38:12.951Z,99381.84
2023-03-01T04:40:43.529Z,99379.13
2023-03-01T04:43:12.504Z,99374.47
2023-03-01T04:45:40.629Z,99382.63
2023-03-01T04:48:10.265Z,99372.03
2023-03-01T04:50:38.551Z,99363.63
2023-03-01T04:53:06.598Z,99371.03
2023-03-01T04:55:35.965Z,99367.97
2023-03-01T04:58:04.011Z,99377.28
2023-03-01T05:00:32.149Z,99372.16
2023-03-01T05:03:02.687Z,99380.75
2023-03-01T05:05:36.149Z,99379.97
2023-03-01T05:08:06.371Z,99386.19
2023-03-01T05:10:36.518Z,99373.78
2023-03-01T05:13:06.208Z,99366.31
2023-03-01T05:15:34.785Z,99362.84
2023-03-01T05:18:02.910Z,99362.50
2023-03-01T05:20:32.661Z,99368.31
2023-03-01T05:23:06.327Z,99367.19
2023-03-01T05:25:41.301Z,99368.75
2023-03-01T05:28:13.829Z,99370.25
2023-03-01T05:30:42.599Z,99377.63
2023-03-01T05:33:14.674Z,99379.56
2023-03-01T05:35:45.294Z,99379.19
2023-03-01T05:38:15.256Z,99381.50
2023-03-01T05:40:44.617Z,99383.06
2023-03-01T05:43:13.234Z,99381.88
2023-03-01T05:45:42.826Z,99379.94
2023-03-01T05:48:12.132Z,99380.34
2023-03-01T05:50:42.227Z,99385.34
2023-03-01T05:53:13.902Z,99377.63
2023-03-01T05:55:42.074Z,99378.41
2023-03-01T05:58:15.034Z,99375.34
2023-03-01T06:00:43.988Z,99385.03
2023-03-01T06:03:13.640Z,99381.88
2023-03-01T06:05:42.552Z,99379.97
2023-03-01T06:08:13.904Z,99380.38
2023-03-01T06:10:42.225Z,99391.97
2023-03-01T06:13:10.485Z,99381.53
2023-03-01T06:15:39.105Z,99390.72
2023-03-01T06:18:07.650Z,99390.06
2023-03-01T06:20:35.684Z,99389.03
2023-03-01T06:23:03.725Z,99391.50
2023-03-01T06:25:33.208Z,99387.66
2023-03-01T06:28:01.463Z,99398.94
2023-03-01T06:30:29.502Z,99390.84
2023-03-01T06:33:02.314Z,99384.25
2023-03-01T06:35:32.216Z,99393.94
2023-03-01T06:38:01.894Z,99383.47
2023-03-01T06:40:30.056Z,99377.31
2023-03-01T06:43:00.130Z,99376.06
2023-03-01T06:45:28.171Z,99381.47
2023-03-01T06:48:04.590Z,99383.91
2023-03-01T06:50:32.833Z,99377.69
2023-03-01T06:53:01.473Z,99387.81
2023-03-01T06:55:29.583Z,99383.22
2023-03-01T06:57:59.706Z,99383.63
2023-03-01T07:00:28.948Z,99368.88
2023-03-01T07:02:57.387Z,99369.28
2023-03-01T07:05:25.492Z,99365.78
2023-03-01T07:07:55.079Z,99363.06
2023-03-01T07:10:23.244Z,99359.19
2023-03-01T07:12:51.484Z,99356.84
2023-03-01T07:15:20.870Z,99355.69
2023-03-01T07:17:51.040Z,99351.00
2023-03-01T07:20:19.884Z,99349.00
2023-03-01T07:22:48.009Z,99338.88
2023-03-01T07:25:16.160Z,99336.13
2023-03-01T07:27:44.287Z,99341.97
2023-03-01T07:30:13.225Z,99339.59
2023-03-01T07:32:43.147Z,99344.94
2023-03-01T07:35:11.720Z,99342.19
2023-03-01T07:37:39.760Z,99345.75
2023-03-01T07:40:09.528Z,99355.22
2023-03-01T07:42:37.680Z,99361.31
2023-03-01T07:45:07.446Z,99354.28
2023-03-01T07:47:35.744Z,99355.94
2023-03-01T07:50:06.458Z,99355.16
2023-03-01T07:52:34.552Z,99358.00
2023-03-01T07:55:02.598Z,99361.50
2023-03-01T07:57:30.713Z,99360.28
2023-03-01T07:59:58.793Z,99348.53
2023-03-01T08:02:26.817Z,99348.06
2023-03-01T08:04:54.932Z,99351.94
2023-03-01T08:07:24.388Z,99345.47
2023-03-01T08:09:52.474Z,99349.84
2023-03-01T08:12:20.590Z,99341.25
2023-03-01T08:14:48.704Z,99338.03
2023-03-01T08:17:17.068Z,99341.75
2023-03-01T08:19:45.660Z,99333.16
2023-03-01T08:22:13.976Z,99332.88
2023-03-01T08:24:43.404Z,99337.47
2023-03-01T08:27:13.226Z,99344.28
2023-03-01T08:29:41.243Z,99337.25
2023-03-01T08:32:09.428Z,99327.03
2023-03-01T08:34:37.650Z,99323.78
2023-03-01T08:37:05.862Z,99323.81
2023-03-01T08:39:34.086Z,99324.06
2023-03-01T08:42:03.508Z,99319.84
2023-03-01T08:44:31.612Z,99319.19
2023-03-01T08:46:59.636Z,99315.09
2023-03-01T08:49:27.711Z,99312.00
2023-03-01T08:51:55.808Z,99318.78
2023-03-01T08:54:24.512Z,99313.38
2023-03-01T08:56:52.573Z,99318.75
2023-03-01T08:59:22.071Z,99316.63
2023-03-01T09:01:50.141Z,99320.56
2023-03-01T09:04:18.468Z,99326.38
2023-03-01T09:06:46.535Z,99325.81
2023-03-01T09:09:17.128Z,99328.59
2023-03-01T09:11:47.204Z,99322.03
2023-03-01T09:14:16.145Z,99312.03
2023-03-01T09:16:46.132Z,99312.44
2023-03-01T09:19:14.983Z,99317.84
2023-03-01T09:21:53.232Z,99302.94
2023-03-01T09:24:23.711Z,99314.84
2023-03-01T09:26:51.894Z,99313.78
2023-03-01T09:29:20.019Z,99307.84
2023-03-01T09:31:49.421Z,99307.88
2023-03-01T09:34:24.140Z,99316.13
2023-03-01T09:36:52.499Z,99318.41
2023-03-01T09:39:21.569Z,99316.41
2023-03-01T09:41:56.386Z,99320.09
2023-03-01T09:44:35.048Z,99323.41
2023-03-01T09:47:05.358Z,99320.69
2023-03-01T09:49:37.380Z,99312.66
2023-03-01T09:52:22.191Z,99322.91
2023-03-01T09:55:00.749Z,99313.13
2023-03-01T09:57:35.735Z,99317.41
2023-03-01T10:00:15.534Z,99315.84
2023-03-01T10:02:49.909Z,99319.31
2023-03-01T10:05:37.123Z,99312.69
2023-03-01T10:08:26.686Z,99315.84
2023-03-01T10:10:55.797Z,99312.78
2023-03-01T10:13:30.149Z,99307.72
2023-03-01T10:16:03.934Z,99304.69
2023-03-01T10:18:37.847Z,99312.97
2023-03-01T10:21:16.261Z,99296.88
2023-03-01T10:23:44.638Z,99301.09
2023-03-01T10:26:34.860Z,99298.25
2023-03-01T10:29:06.138Z,99297.00
2023-03-01T10:31:43.982Z,99291.63
2023-03-01T10:34:19.088Z,99296.31
2023-03-01T10:36:50.949Z,99291.81
2023-03-01T10:39:21.691Z,99298.50
2023-03-01T10:42:01.776Z,99298.72
2023-03-01T10:44:46.153Z,99287.59
2023-03-01T10:47:22.224Z,99287.09
2023-03-01T10:50:01.563Z,99283.84
2023-03-01T10:52:32.985Z,99286.50
2023-03-01T10:55:04.712Z,99278.44
2023-03-01T10:57:42.673Z,99283.00
2023-03-01T11:00:26.680Z,99277.84
2023-03-01T11:03:13.024Z,99277.25
2023-03-01T11:05:59.340Z,99269.63
2023-03-01T11:08:38.991Z,99267.63
2023-03-01T11:11:20.461Z,99258.25
2023-03-01T11:13:58.107Z,99256.56
2023-03-01T11:16:33.030Z,99259.09
2023-03-01T11:19:16.571Z,99254.44
2023-03-01T11:21:55.304Z,99260.03
2023-03-01T11:24:31.292Z,99258.53
2023-03-01T11:27:04.810Z,99253.78
2023-03-01T11:29:48.539Z,99250.91
2023-03-01T11:32:17.874Z,99252.91
2023-03-01T11:34:51.388Z,99251.56
2023-03-01T11:37:32.219Z,99249.41
2023-03-01T11:40:22.274Z,99251.16
2023-03-01T11:43:12.474Z,99236.69
2023-03-01T11:45:49.989Z,99239.84
2023-03-01T11:48:49.864Z,99240.63
2023-03-01T11:51:26.757Z,99232.72
2023-03-01T11:54:10.118Z,99225.63
2023-03-01T11:56:42.949Z,99215.03
2023-03-01T11:59:46.295Z,99210.97
2023-03-01T12:02:48.627Z,99214.94
2023-03-01T12:05:33.693Z,99215.22
2023-03-01T12:08:11.066Z,99215.22
2023-03-01T12:10:50.977Z,99209.91
2023-03-01T12:13:32.864Z,99208.78
2023-03-01T12:16:38.856Z,99208.38
2023-03-01T12:19:21.878Z,99206.69
2023-03-01T12:22:05.698Z,99193.34
2023-03-01T12:24:48.755Z,99194.03
2023-03-01T12:27:41.031Z,99190.84
2023-03-01T12:30:26.145Z,99186.03
2023-03-01T12:33:06.006Z,99176.78
2023-03-01T12:35:56.276Z,99174.19
2023-03-01T12:38:36.564Z,99171.72
2023-03-01T12:41:22.283Z,99169.25
2023-03-01T12:44:05.968Z,99158.72
2023-03-01T12:46:47.218Z,99145.28
2023-03-01T12:49:18.339Z,99157.19
2023-03-01T12:51:56.889Z,99146.56
2023-03-01T12:54:32.599Z,99156.41
2023-03-01T12:57:12.212Z,99145.72
2023-03-01T12:59:51.341Z,99151.44
2023-03-01T13:02:26.989Z,99145.81
2023-03-01T13:05:09.093Z,99142.78
2023-03-01T13:07:43.402Z,99144.13
2023-03-01T13:10:22.233Z,99148.25
2023-03-01T13:13:05.555Z,99159.00
2023-03-01T13:15:37.863Z,99152.06
2023-03-01T13:18:30.909Z,99161.22
2023-03-01T13:21:01.536Z,99153.56
2023-03-01T13:23:33.258Z,99149.72
2023-03-01T13:26:14.143Z,99154.56
2023-03-01T13:28:51.149Z,99152.06
2023-03-01T13:32:02.791Z,99151.84
2023-03-01T13:34:56.612Z,99141.88
2023-03-01T13:37:31.568Z,99135.38
2023-03-01T13:40:05.260Z,99140.06
2023-03-01T13:42:43.286Z,99141.81
2023-03-01T13:45:26.619Z,99136.75
2023-03-01T13:48:03.429Z,99128.44
2023-03-01T13:50:41.123Z,99135.88
2023-03-01T13:53:16.366Z,99117.53
2023-03-01T13:55:47.597Z,99117.59
2023-03-01T13:58:22.940Z,99120.97
2023-03-01T14:00:58.404Z,99118.09
2023-03-01T14:03:27.257Z,99110.63
2023-03-01T14:06:15.678Z,99108.63
2023-03-01T14:08:45.265Z,99105.69
2023-03-01T14:11:53.270Z,99101.84
2023-03-01T14:14:42.490Z,99099.44
2023-03-01T14:17:30.662Z,99100.28
2023-03-01T14:20:01.543Z,99105.53
2023-03-01T14:22:34.248Z,99091.41
2023-03-01T14:25:03.987Z,99094.66
2023-03-01T14:27:37.400Z,99086.63
2023-03-01T14:30:14.893Z,99087.13
2023-03-01T14:32:43.198Z,99092.88
2023-03-01T14:35:23.105Z,99093.41
2023-03-01T14:37:52.767Z,99098.41
2023-03-01T14:40:27.304Z,99097.16
2023-03-01T14:42:57.230Z,99101.03
2023-03-01T14:45:27.450Z,99105.94
2023-03-01T14:47:57.096Z,99103.50
2023-03-01T14:50:28.198Z,99092.78
2023-03-01T14:53:01.016Z,99095.81
2023-03-01T14:55:33.689Z,99094.31
2023-03-01T14:58:03.541Z,99097.66
2023-03-01T15:00:35.146Z,99098.13
2023-03-01T15:03:14.351Z,99091.59
2023-03-01T15:05:45.363Z,99094.75
2023-03-01T15:08:21.532Z,99090.56
2023-03-01T15:11:01.660Z,99088.03
2023-03-01T15:13:34.099Z,99083.06
2023-03-01T15:16:13.576Z,99096.78
2023-03-01T15:18:47.210Z,99087.44
2023-03-01T15:21:21.103Z,99091.00
2023-03-01T15:23:56.401Z,99085.94
2023-03-01T15:26:31.720Z,99089.16
2023-03-01T15:29:02.112Z,99087.88
2023-03-01T15:31:33.605Z,99096.81
2023-03-01T15:34:13.554Z,99083.78
2023-03-01T15:36:45.543Z,99077.75
2023-03-01T15:39:34.095Z,99083.50
2023-03-01T15:42:03.377Z,99074.88
2023-03-01T15:44:42.699Z,99081.06
2023-03-01T15:47:27.065Z,99080.31
2023-03-01T15:49:56.797Z,99077.19
2023-03-01T15:52:30.568Z,99074.50
2023-03-01T15:55:03.730Z,99078.34
2023-03-01T15:57:32.033Z,99074.09
2023-03-01T16:00:00.245Z,99076.84
2023-03-01T16:02:28.424Z,99078.94
2023-03-01T16:04:57.562Z,99081.47
2023-03-01T16:07:27.912Z,99089.59
2023-03-01T16:09:56.007Z,99089.91
2023-03-01T16:12:26.309Z,99088.22
2023-03-01T16:14:55.096Z,99092.03
2023-03-01T16:17:23.265Z,99093.41
2023-03-01T16:19:51.572Z,99094.31
2023-03-01T16:22:25.856Z,99099.78
2023-03-01T16:24:54.137Z,99094.41
2023-03-01T16:27:23.001Z,99108.50
2023-03-01T16:29:52.547Z,99105.91
2023-03-01T16:32:20.771Z,99110.44
2023-03-01T16:34:50.404Z,99100.28
2023-03-01T16:37:20.304Z,99108.56
2023-03-01T16:39:49.901Z,99110.81
2023-03-01T16:42:19.421Z,99110.75
2023-03-01T16:44:47.509Z,99124.00
2023-03-01T16:47:17.025Z,99113.06
2023-03-01T16:49:45.300Z,99112.34
2023-03-01T16:52:13.444Z,99113.22
2023-03-01T16:54:41.655Z,99105.34
2023-03-01T16:57:09.822Z,99109.00
2023-03-01T16:59:38.449Z,99114.09
2023-03-01T17:02:07.140Z,99117.00
2023-03-01T17:04:36.631Z,99117.56
2023-03-01T17:07:05.202Z,99119.66
2023-03-01T17:09:36.783Z,99112.28
2023-03-01T17:12:05.447Z,99115.69
2023-03-01T17:14:33.639Z,99118.75
2023-03-01T17:17:02.546Z,99118.50
2023-03-01T17:19:30.604Z,99124.97
2023-03-01T17:22:01.240Z,99115.38
2023-03-01T17:24:30.152Z,99115.53
2023-03-01T17:26:58.281Z,99110.81
2023-03-01T17:29:26.503Z,99113.22
2023-03-01T17:31:56.746Z,99112.53
2023-03-01T17:34:25.592Z,99111.63
2023-03-01T17:36:54.861Z,99109.88
2023-03-01T17:39:28.627Z,99117.94
2023-03-01T17:41:58.734Z,99118.34
2023-03-01T17:44:27.265Z,99120.19
2023-03-01T17:46:55.390Z,99123.03
2023-03-01T17:49:23.724Z,99122.53
2023-03-01T17:51:51.807Z,99126.22
2023-03-01T17:54:19.876Z,99122.44
2023-03-01T17:56:49.379Z,99120.72
2023-03-01T17:59:18.757Z,99120.38
2023-03-01T18:01:47.251Z,99118.56
2023-03-01T18:04:15.725Z,99122.31
2023-03-01T18:06:43.774Z,99115.66
2023-03-01T18:09:12.072Z,99112.63
2023-03-01T18:11:42.101Z,99112.16
2023-03-01T18:14:11.504Z,99110.22
2023-03-01T18:16:40.112Z,99119.97
2023-03-01T18:19:08.289Z,99114.50
2023-03-01T18:21:36.317Z,99116.47
2023-03-01T18:24:04.536Z,99107.16
2023-03-01T18:26:33.058Z,99106.09
2023-03-01T18:29:03.528Z,99106.94
2023-03-01T18:31:33.834Z,99106.25
2023-03-01T18:34:02.207Z,99102.81
2023-03-01T18:36:33.088Z,99103.28
2023-03-01T18:39:02.925Z,99102.50
2023-03-01T18:41:32.953Z,99100.34
2023-03-01T18:44:02.536Z,99106.06
2023-03-01T18:46:33.352Z,99098.03
2023-03-01T18:49:02.827Z,99106.78
2023-03-01T18:51:31.368Z,99097.88
2023-03-01T18:53:59.951Z,99092.25
2023-03-01T18:56:29.963Z,99103.22
2023-03-01T18:58:59.514Z,99095.00
2023-03-01T19:01:30.227Z,99095.75
2023-03-01T19:04:00.260Z,99079.34
2023-03-01T19:06:32.000Z,99079.06
2023-03-01T19:09:01.334Z,99083.72
2023-03-01T19:11:31.178Z,99080.13
2023-03-01T19:14:01.011Z,99082.16
2023-03-01T19:16:31.206Z,99081.38
2023-03-01T19:19:03.065Z,99083.06
2023-03-01T19:21:32.951Z,99076.00
2023-03-01T19:24:03.992Z,99088.53
2023-03-01T19:26:33.225Z,99083.63
2023-03-01T19:29:02.991Z,99094.59
2023-03-01T19:31:31.859Z,99092.69
2023-03-01T19:34:11.097Z,99083.84
2023-03-01T19:36:41.854Z,99090.22
2023-03-01T19:39:11.500Z,99083.63
2023-03-01T19:41:39.608Z,99086.47
2023-03-01T19:44:08.751Z,99092.84
2023-03-01T19:46:37.332Z,99093.59
2023-03-01T19:49:07.869Z,99102.53
2023-03-01T19:51:38.880Z,99097.59
2023-03-01T19:54:09.915Z,99086.91
2023-03-01T19:56:38.214Z,99101.09
2023-03-01T19:59:06.951Z,99102.00
2023-03-01T20:01:37.687Z,99089.91
2023-03-01T20:04:09.142Z,99096.91
2023-03-01T20:06:38.157Z,99098.03
2023-03-01T20:09:19.280Z,99094.53
2023-03-01T20:11:49.057Z,99099.22
2023-03-01T20:14:17.152Z,99102.28
2023-03-01T20:16:45.269Z,99103.84
2023-03-01T20:19:14.714Z,99098.78
2023-03-01T20:21:42.815Z,99109.88
2023-03-01T20:24:10.944Z,99099.47
2023-03-01T20:26:41.055Z,99102.63
2023-03-01T20:29:09.936Z,99106.19
2023-03-01T20:31:39.861Z,99105.00
2023-03-01T20:34:08.233Z,99095.91
2023-03-01T20:36:41.080Z,99099.78
2023-03-01T20:39:09.760Z,99089.75
2023-03-01T20:41:37.848Z,99090.97
2023-03-01T20:44:06.770Z,99100.34
2023-03-01T20:46:36.442Z,99096.47
2023-03-01T20:49:06.432Z,99098.53
2023-03-01T20:51:34.704Z,99094.66
2023-03-01T20:54:05.177Z,99090.06
2023-03-01T20:56:33.887Z,99097.84
2023-03-01T20:59:05.904Z,99095.59
2023-03-01T21:01:34.061Z,99089.59
2023-03-01T21:04:02.477Z,99088.47
2023-03-01T21:06:31.378Z,99089.16
2023-03-01T21:08:59.707Z,99097.06
2023-03-01T21:11:29.221Z,99090.16
2023-03-01T21:13:57.632Z,99083.94
2023-03-01T21:16:26.314Z,99086.63
2023-03-01T21:18:55.793Z,99081.06
2023-03-01T21:21:25.073Z,99084.44
2023-03-01T21:23:54.587Z,99083.66
2023-03-01T21:26:24.632Z,99087.22
2023-03-01T21:28:57.187Z,99089.22
2023-03-01T21:31:28.614Z,99086.22
2023-03-01T21:33:58.986Z,99095.53
2023-03-01T21:36:29.913Z,99088.19
2023-03-01T21:39:01.621Z,99090.16
2023-03-01T21:41:31.787Z,99091.75
2023-03-01T21:44:03.187Z,99085.97
2023-03-01T21:46:36.730Z,99081.38
2023-03-01T21:49:07.275Z,99080.28
2023-03-01T21:51:36.616Z,99086.78
2023-03-01T21:54:05.656Z,99080.16
2023-03-01T21:56:38.952Z,99077.88
2023-03-01T21:59:10.344Z,99084.91
2023-03-01T22:01:38.602Z,99079.44
2023-03-01T22:04:06.822Z,99074.63
2023-03-01T22:06:40.510Z,99082.00
2023-03-01T22:09:11.064Z,99073.47
2023-03-01T22:11:41.837Z,99075.81
2023-03-01T22:14:13.609Z,99080.50
2023-03-01T22:16:43.579Z,99075.41
2023-03-01T22:19:12.107Z,99077.03
2023-03-01T22:21:40.832Z,99081.34
2023-03-01T22:24:10.278Z,99077.50
2023-03-01T22:26:40.735Z,99084.56
2023-03-01T22:29:12.124Z,99074.06
2023-03-01T22:31:40.822Z,99068.63
2023-03-01T22:34:09.109Z,99067.28
2023-03-01T22:36:39.279Z,99067.50
2023-03-01T22:39:07.739Z,99069.50
2023-03-01T22:41:38.504Z,99062.13
2023-03-01T22:44:06.830Z,99068.50
2023-03-01T22:46:36.247Z,99069.06
2023-03-01T22:49:05.379Z,99067.28
2023-03-01T22:51:35.653Z,99060.59
2023-03-01T22:54:04.138Z,99059.03
2023-03-01T22:56:34.716Z,99059.13
2023-03-01T22:59:05.224Z,99062.06
2023-03-01T23:01:33.418Z,99065.84
2023-03-01T23:04:03.640Z,99068.91
2023-03-01T23:06:32.142Z,99063.75
2023-03-01T23:09:04.224Z,99061.41
2023-03-01T23:11:32.475Z,99063.31
2023-03-01T23:14:00.731Z,99066.81
2023-03-01T23:16:29.036Z,99059.50
2023-03-01T23:19:01.643Z,99058.19
2023-03-01T23:21:31.325Z,99067.53
2023-03-01T23:23:59.438Z,99059.69
2023-03-01T23:26:29.065Z,99061.50
2023-03-01T23:28:57.266Z,99066.59
2023-03-01T23:31:30.274Z,99065.56
2023-03-01T23:33:58.401Z,99063.78
2023-03-01T23:36:27.900Z,99065.78
2023-03-01T23:38:59.934Z,99063.09
2023-03-01T23:41:30.025Z,99061.28
2023-03-01T23:44:00.378Z,99069.66
2023-03-01T23:46:31.454Z,99074.34
2023-03-01T23:49:00.458Z,99073.16
2023-03-01T23:51:29.480Z,99078.22
2023-03-01T23:54:02.438Z,99069.66
2023-03-01T23:56:33.506Z,99066.84
2023-03-01T23:59:03.577Z,99059.16
